WADD/DPS METAR and TAF weather

Enter ICAO airport designator
Station Type Date Time Source
WADD METAR 2019/06/26 17:30 UTC NOAA

WADD 261730Z 12007KT 9999 BKN017 25/22 Q1013 NOSIG


Station Type Date Time Source
WADD Decoded METAR 2019/06/26 17:30 UTC NOAA

Station name not available
Jun 26, 2019 - 01:30 PM EDT / 2019.06.26 1730 UTC
Wind: from the ESE (120 degrees) at 8 MPH (7 KT):0
Visibility: greater than 7 mile(s):0
Sky conditions: mostly cloudy
Temperature: 77 F (25 C)
Dew Point: 71 F (22 C)
Relative Humidity: 83%
Pressure (altimeter): 29.91 in. Hg (1013 hPa)
ob: WADD 261730Z 12007KT 9999 BKN017 25/22 Q1013 NOSIG
cycle: 17

Station Type Date Time Source
WADD TAF 2019/06/26 18:27 UTC NOAA

TAF TAF WADD 261700Z 2618/2718 12013KT 9999 SCT017
TEMPO 2622/2702 VRB05KT

Example: see airport list